Time;durP1;ratioP1;P1;durP2;ratioP2;P2;SDS_P1;SDS_P2;PMS_P1;PMS_P2;Temp;Humidity;BMP_temperature;BMP_pressure;BME280_temperature;BME280_humidity;BME280_pressure;Samples;Min_cycle;Max_cycle;Signal;HPM_P1;HPM_P2
2022/04/07 00:01:20;;;;;;;5.20;1.50;;;10.40;99.90;;;;;;5059696;28;20032;-65
2022/04/07 00:03:46;;;;;;;4.03;1.58;;;10.30;99.90;;;;;;5077042;28;20040;-69
2022/04/07 00:06:12;;;;;;;3.75;1.23;;;10.30;99.90;;;;;;5076228;28;20032;-65
2022/04/07 00:08:39;;;;;;;3.30;1.48;;;10.20;99.90;;;;;;5059781;28;20450;-69
2022/04/07 00:11:07;;;;;;;6.55;1.58;;;10.20;99.90;;;;;;5059427;28;20157;-67
2022/04/07 00:13:33;;;;;;;6.28;2.00;;;10.20;99.90;;;;;;5076885;28;20126;-67
2022/04/07 00:16:00;;;;;;;5.40;1.80;;;10.20;99.90;;;;;;5076215;28;20123;-64
2022/04/07 00:18:29;;;;;;;4.97;2.00;;;10.20;99.90;;;;;;5076276;28;20355;-64
2022/04/07 00:20:56;;;;;;;6.72;1.75;;;10.10;99.90;;;;;;5076196;28;20293;-66
2022/04/07 00:23:23;;;;;;;6.57;1.80;;;10.00;99.90;;;;;;5076918;28;20032;-65
2022/04/07 00:25:49;;;;;;;6.95;1.90;;;10.00;99.90;;;;;;5077318;28;20044;-66
2022/04/07 00:28:15;;;;;;;6.88;2.58;;;9.90;99.90;;;;;;5076855;28;20032;-69
2022/04/07 00:30:43;;;;;;;5.40;1.92;;;9.80;99.90;;;;;;5076750;28;20025;-67
2022/04/07 00:33:09;;;;;;;5.57;1.83;;;9.70;99.90;;;;;;5075882;28;20422;-67
2022/04/07 00:35:36;;;;;;;10.45;2.05;;;9.70;99.90;;;;;;5076452;28;20111;-68
2022/04/07 00:38:03;;;;;;;5.00;2.00;;;9.70;99.90;;;;;;5076611;28;20288;-68
2022/04/07 00:40:29;;;;;;;10.77;2.33;;;9.70;99.90;;;;;;5058939;28;20337;-63
2022/04/07 00:42:55;;;;;;;6.93;2.05;;;9.70;99.90;;;;;;5076552;28;20031;-68
2022/04/07 00:45:22;;;;;;;7.47;2.15;;;9.60;99.90;;;;;;5077146;28;20028;-66
2022/04/07 00:47:49;;;;;;;8.15;2.38;;;9.60;99.90;;;;;;5076460;28;20037;-67
2022/04/07 00:50:16;;;;;;;4.88;2.08;;;9.70;99.90;;;;;;5076545;28;20423;-67
2022/04/07 00:52:49;;;;;;;9.93;2.40;;;9.70;99.90;;;;;;5076412;28;20036;-69
2022/04/07 00:55:15;;;;;;;7.07;2.22;;;9.70;99.90;;;;;;5076362;28;20083;-62
2022/04/07 00:57:45;;;;;;;8.55;2.50;;;9.70;99.90;;;;;;5076600;28;20027;-61
2022/04/07 01:00:12;;;;;;;7.45;2.15;;;9.70;99.90;;;;;;5076457;28;20033;-65
2022/04/07 01:02:38;;;;;;;10.40;2.67;;;9.70;99.90;;;;;;5076439;28;20421;-65
2022/04/07 01:05:05;;;;;;;8.90;2.75;;;9.70;99.90;;;;;;5076808;28;20052;-63
2022/04/07 01:07:36;;;;;;;11.05;2.63;;;9.70;99.90;;;;;;5076416;28;20396;-65
2022/04/07 01:10:06;;;;;;;10.65;2.40;;;9.70;99.90;;;;;;5076410;28;20044;-63
2022/04/07 01:12:32;;;;;;;9.45;2.22;;;9.60;99.90;;;;;;5075566;28;20189;-67
2022/04/07 01:15:01;;;;;;;7.70;2.10;;;9.60;99.90;;;;;;5076334;28;20060;-66
2022/04/07 01:17:28;;;;;;;13.52;2.22;;;9.70;99.90;;;;;;5076277;28;20032;-67
2022/04/07 01:19:54;;;;;;;7.10;1.80;;;9.70;99.90;;;;;;5076305;28;20060;-64
2022/04/07 01:22:21;;;;;;;5.38;1.90;;;9.70;99.90;;;;;;5076247;28;20024;-64
2022/04/07 01:24:47;;;;;;;9.82;2.22;;;9.70;99.90;;;;;;5076430;28;20029;-64
2022/04/07 01:27:14;;;;;;;14.55;2.30;;;9.70;99.90;;;;;;5076261;28;20391;-65
2022/04/07 01:29:40;;;;;;;10.07;2.40;;;9.70;99.90;;;;;;5075855;28;20433;-64
2022/04/07 01:32:19;;;;;;;6.57;2.22;;;9.70;99.90;;;;;;5079635;28;20025;-71
2022/04/07 01:34:45;;;;;;;9.48;1.95;;;9.80;99.90;;;;;;5079807;28;20108;-65
2022/04/07 01:37:12;;;;;;;11.07;2.22;;;9.90;99.90;;;;;;5079238;28;20024;-66
2022/04/07 01:39:41;;;;;;;8.13;1.83;;;9.90;99.90;;;;;;5078783;28;20143;-65
2022/04/07 01:42:09;;;;;;;6.43;1.60;;;10.00;99.90;;;;;;5062329;28;20047;-66
2022/04/07 01:44:40;;;;;;;10.52;1.67;;;9.90;99.90;;;;;;5078860;28;20093;-70
2022/04/07 01:47:09;;;;;;;8.90;2.55;;;10.00;99.90;;;;;;5079565;28;20036;-66
2022/04/07 01:49:36;;;;;;;10.35;1.92;;;10.00;99.90;;;;;;5079567;28;20388;-65
2022/04/07 01:52:04;;;;;;;6.53;2.05;;;9.90;99.90;;;;;;5079345;28;20174;-66
2022/04/07 01:54:31;;;;;;;8.13;2.20;;;9.90;99.90;;;;;;5079315;28;20105;-71
2022/04/07 01:56:57;;;;;;;7.43;1.85;;;10.00;99.90;;;;;;5079448;28;20090;-67
2022/04/07 01:59:25;;;;;;;6.50;2.08;;;10.00;99.90;;;;;;5078541;28;20059;-67
2022/04/07 02:01:51;;;;;;;8.77;2.13;;;10.00;99.90;;;;;;5079239;28;20032;-67
2022/04/07 02:04:17;;;;;;;8.27;2.17;;;10.00;99.90;;;;;;5079246;28;20363;-63
2022/04/07 02:06:43;;;;;;;7.25;1.90;;;10.10;99.90;;;;;;5078317;28;20044;-70
2022/04/07 02:09:09;;;;;;;6.15;1.85;;;10.20;99.90;;;;;;5078469;28;20107;-66
2022/04/07 02:11:35;;;;;;;5.35;2.13;;;10.20;99.90;;;;;;5078654;28;20048;-62
2022/04/07 02:14:01;;;;;;;9.00;2.13;;;10.30;99.90;;;;;;5079623;28;20094;-67
2022/04/07 02:16:30;;;;;;;5.32;1.65;;;10.30;99.90;;;;;;5079026;28;20029;-64
2022/04/07 02:18:56;;;;;;;8.43;2.15;;;10.30;99.90;;;;;;5078403;28;20024;-68
2022/04/07 02:21:22;;;;;;;9.13;1.60;;;10.30;99.90;;;;;;5061576;28;20305;-70
2022/04/07 02:23:48;;;;;;;8.60;2.05;;;10.30;99.90;;;;;;5078846;28;20036;-60
2022/04/07 02:26:16;;;;;;;12.77;2.08;;;10.40;99.90;;;;;;5078819;28;20082;-72
2022/04/07 02:28:42;;;;;;;7.90;1.55;;;10.30;99.90;;;;;;5078759;28;20032;-68
2022/04/07 02:31:09;;;;;;;8.43;1.75;;;10.40;99.90;;;;;;5078693;28;20316;-71
2022/04/07 02:33:35;;;;;;;12.88;1.73;;;10.40;99.90;;;;;;5078683;28;20040;-69
2022/04/07 02:36:06;;;;;;;5.35;1.33;;;10.30;99.90;;;;;;5061256;28;20032;-71
2022/04/07 02:38:34;;;;;;;10.88;1.98;;;10.40;99.90;;;;;;5078555;28;20405;-64
2022/04/07 02:41:00;;;;;;;8.82;1.73;;;10.40;99.90;;;;;;5077613;28;20041;-64
2022/04/07 02:43:25;;;;;;;6.20;1.58;;;10.40;99.90;;;;;;5077404;28;20042;-69
2022/04/07 02:45:51;;;;;;;6.20;1.75;;;10.40;99.90;;;;;;5078332;28;20036;-66
2022/04/07 02:48:17;;;;;;;6.53;1.80;;;10.40;99.90;;;;;;5077632;28;20040;-63
2022/04/07 02:50:44;;;;;;;5.30;1.60;;;10.50;99.90;;;;;;5078365;28;20035;-66
2022/04/07 02:53:10;;;;;;;6.07;1.40;;;10.50;99.90;;;;;;5078325;28;20296;-68
2022/04/07 02:55:35;;;;;;;9.00;1.60;;;10.40;99.90;;;;;;5077543;28;20115;-66
2022/04/07 02:58:01;;;;;;;8.52;1.90;;;10.50;99.90;;;;;;5077364;28;20120;-67
2022/04/07 03:00:27;;;;;;;9.15;1.67;;;10.50;99.90;;;;;;5061334;28;20410;-67
2022/04/07 03:02:53;;;;;;;8.80;1.70;;;10.50;99.90;;;;;;5077992;28;20407;-68
2022/04/07 03:05:19;;;;;;;6.63;1.70;;;10.50;99.90;;;;;;5078065;28;20120;-66
2022/04/07 03:07:45;;;;;;;7.65;1.50;;;10.40;99.90;;;;;;5060768;28;20098;-68
2022/04/07 03:10:11;;;;;;;9.98;1.98;;;10.40;99.90;;;;;;5077907;28;20280;-67
2022/04/07 03:12:38;;;;;;;4.88;1.60;;;10.40;99.90;;;;;;5077827;28;20449;-68
2022/04/07 03:15:07;;;;;;;9.45;1.88;;;10.40;99.90;;;;;;5077743;28;20035;-66
2022/04/07 03:17:33;;;;;;;9.18;1.83;;;10.40;99.90;;;;;;5044232;28;20153;-68
2022/04/07 03:20:00;;;;;;;5.55;1.50;;;10.40;99.90;;;;;;5060490;28;20036;-68
2022/04/07 03:22:26;;;;;;;7.90;2.13;;;10.40;99.90;;;;;;5043661;28;20119;-68
2022/04/07 03:24:52;;;;;;;6.38;1.70;;;10.40;99.90;;;;;;5076986;28;20444;-71
2022/04/07 03:27:21;;;;;;;5.50;2.40;;;10.40;99.90;;;;;;5060359;28;20090;-63
2022/04/07 03:29:47;;;;;;;5.95;1.85;;;10.40;99.90;;;;;;5077689;28;20043;-63
2022/04/07 03:32:13;;;;;;;5.70;2.10;;;10.40;99.90;;;;;;5077578;28;20028;-65
2022/04/07 03:34:39;;;;;;;4.75;1.83;;;10.50;99.90;;;;;;5060337;28;20029;-61
2022/04/07 03:37:05;;;;;;;5.65;1.85;;;10.50;99.90;;;;;;5077461;28;20021;-73
2022/04/07 03:39:32;;;;;;;7.00;1.80;;;10.40;99.90;;;;;;5077334;28;20376;-64
2022/04/07 03:41:58;;;;;;;3.85;1.50;;;10.40;99.90;;;;;;5077420;28;20082;-67
2022/04/07 03:44:24;;;;;;;3.55;1.60;;;10.40;99.90;;;;;;5077968;28;20343;-67
2022/04/07 03:46:50;;;;;;;3.65;1.70;;;10.40;99.90;;;;;;5059695;28;20036;-68
2022/04/07 03:49:15;;;;;;;6.63;1.80;;;10.40;99.90;;;;;;5076440;28;20498;-67
2022/04/07 03:51:41;;;;;;;5.93;1.65;;;10.40;99.90;;;;;;5059743;28;20300;-70
2022/04/07 03:54:07;;;;;;;4.47;1.75;;;10.40;99.90;;;;;;5076780;28;20304;-64
2022/04/07 03:56:33;;;;;;;5.35;1.65;;;10.50;99.90;;;;;;5077085;28;20032;-70
2022/04/07 03:58:59;;;;;;;5.10;1.50;;;10.40;99.90;;;;;;5076902;28;20044;-68
2022/04/07 04:01:28;;;;;;;4.07;1.27;;;10.40;99.90;;;;;;5076193;28;20020;-71
2022/04/07 04:03:54;;;;;;;3.50;1.70;;;10.40;99.90;;;;;;5043789;28;20093;-71
2022/04/07 04:06:20;;;;;;;3.28;1.67;;;10.50;99.90;;;;;;5076215;28;20052;-71
2022/04/07 04:08:46;;;;;;;3.03;1.55;;;10.50;99.90;;;;;;5076886;28;20060;-71
2022/04/07 04:11:12;;;;;;;4.00;1.50;;;10.50;99.90;;;;;;5059466;28;20373;-69
2022/04/07 04:13:39;;;;;;;3.63;1.40;;;10.50;99.90;;;;;;5076108;28;20044;-69
2022/04/07 04:16:05;;;;;;;3.92;1.70;;;10.50;99.90;;;;;;5076841;28;20036;-65
2022/04/07 04:18:31;;;;;;;2.92;1.27;;;10.40;99.90;;;;;;5076369;28;20047;-62
2022/04/07 04:20:57;;;;;;;3.88;1.50;;;10.40;99.90;;;;;;5076771;28;20388;-65
2022/04/07 04:23:23;;;;;;;1.75;1.20;;;10.30;99.90;;;;;;5059402;28;20070;-64
2022/04/07 04:25:49;;;;;;;3.00;1.20;;;10.30;99.90;;;;;;5076698;28;20087;-68
2022/04/07 04:28:15;;;;;;;2.33;1.17;;;10.30;99.90;;;;;;5076082;28;20033;-64
2022/04/07 04:30:41;;;;;;;2.25;1.10;;;10.30;99.90;;;;;;5059262;28;20044;-70
2022/04/07 04:33:07;;;;;;;2.70;1.35;;;10.20;99.90;;;;;;5076697;28;20044;-72
2022/04/07 04:35:33;;;;;;;3.55;1.10;;;10.10;99.90;;;;;;5077266;28;20024;-72
2022/04/07 04:37:59;;;;;;;2.60;1.15;;;10.00;99.90;;;;;;5075963;28;20021;-72
2022/04/07 04:40:25;;;;;;;5.88;1.50;;;10.00;99.90;;;;;;5076605;28;20055;-72
2022/04/07 04:42:51;;;;;;;4.78;1.20;;;9.90;99.90;;;;;;5076623;28;20027;-68
2022/04/07 04:45:16;;;;;;;3.13;1.27;;;9.90;99.90;;;;;;5076754;28;20128;-63
2022/04/07 04:47:42;;;;;;;3.45;1.50;;;10.00;99.90;;;;;;5076702;28;20116;-63
2022/04/07 04:50:08;;;;;;;3.35;1.52;;;9.90;99.90;;;;;;5059868;28;20094;-69
2022/04/07 04:52:34;;;;;;;4.32;1.85;;;10.00;99.90;;;;;;5075942;28;20067;-65
2022/04/07 04:55:00;;;;;;;2.42;1.60;;;10.00;99.90;;;;;;5075891;28;20032;-68
2022/04/07 04:57:29;;;;;;;5.00;1.75;;;10.00;99.90;;;;;;5059528;28;20039;-71
2022/04/07 04:59:55;;;;;;;3.17;1.52;;;10.00;99.90;;;;;;5042539;28;20043;-68
2022/04/07 05:02:21;;;;;;;7.72;1.70;;;10.10;99.90;;;;;;5042699;28;20025;-67
2022/04/07 05:04:47;;;;;;;4.80;1.88;;;10.10;99.90;;;;;;5042395;28;20119;-65
2022/04/07 05:07:13;;;;;;;5.97;1.48;;;10.10;99.90;;;;;;5079340;28;20033;-72
2022/04/07 05:09:38;;;;;;;3.40;1.63;;;10.10;99.90;;;;;;5079444;28;20388;-69
2022/04/07 05:12:05;;;;;;;4.57;1.48;;;10.10;99.90;;;;;;5062752;28;20289;-72
2022/04/07 05:14:31;;;;;;;6.20;1.38;;;10.10;99.90;;;;;;5062717;28;20388;-68
2022/04/07 05:16:56;;;;;;;4.38;1.65;;;10.10;99.90;;;;;;5079461;28;20137;-63
2022/04/07 05:19:22;;;;;;;4.10;1.40;;;10.20;99.90;;;;;;5062647;28;20422;-64
2022/04/07 05:21:49;;;;;;;4.13;1.40;;;10.20;99.90;;;;;;5079374;28;20048;-70
2022/04/07 05:24:17;;;;;;;9.77;1.58;;;10.20;99.90;;;;;;5079778;28;20067;-73
2022/04/07 05:26:44;;;;;;;3.25;1.10;;;10.20;99.90;;;;;;5062421;28;20032;-65
2022/04/07 05:29:10;;;;;;;4.35;1.35;;;10.20;99.90;;;;;;5079272;28;20036;-68
2022/04/07 05:31:35;;;;;;;4.05;1.33;;;10.20;99.90;;;;;;5078999;28;20032;-71
2022/04/07 05:34:01;;;;;;;4.65;1.33;;;10.30;99.90;;;;;;5078967;28;20301;-68
2022/04/07 05:36:27;;;;;;;3.50;1.15;;;10.20;99.90;;;;;;5079204;28;20036;-70
2022/04/07 05:38:53;;;;;;;5.95;1.58;;;10.10;99.90;;;;;;5079178;28;20047;-64
2022/04/07 05:41:19;;;;;;;5.70;1.63;;;9.90;99.90;;;;;;5078832;28;20143;-73
2022/04/07 05:43:45;;;;;;;4.25;1.30;;;9.80;99.90;;;;;;5062204;28;20136;-64
2022/04/07 05:46:11;;;;;;;9.10;1.73;;;9.80;99.90;;;;;;5062096;28;20474;-67
2022/04/07 05:48:36;;;;;;;4.85;1.40;;;9.80;99.90;;;;;;5078953;28;20088;-70
2022/04/07 05:51:02;;;;;;;5.28;1.40;;;9.70;99.90;;;;;;5045863;28;20190;-70
2022/04/07 05:53:28;;;;;;;4.43;1.58;;;9.70;99.90;;;;;;5078545;28;20090;-71
2022/04/07 05:55:57;;;;;;;5.40;1.58;;;9.70;99.90;;;;;;5061745;28;20029;-63
2022/04/07 05:58:24;;;;;;;6.00;1.73;;;9.70;99.90;;;;;;5078530;28;20028;-61
2022/04/07 06:00:50;;;;;;;4.97;1.40;;;9.70;99.90;;;;;;5078639;28;20380;-66
2022/04/07 06:03:16;;;;;;;6.68;1.48;;;9.70;99.90;;;;;;5061512;28;20073;-63
2022/04/07 06:05:42;;;;;;;7.43;1.23;;;9.70;99.90;;;;;;5079738;28;20335;-64
2022/04/07 06:08:07;;;;;;;5.65;1.60;;;9.60;99.90;;;;;;5078923;28;20051;-66
2022/04/07 06:10:34;;;;;;;4.75;1.20;;;9.60;99.90;;;;;;5061650;28;20033;-70
2022/04/07 06:13:00;;;;;;;4.45;1.38;;;9.60;99.90;;;;;;5028558;28;20083;-66
2022/04/07 06:15:26;;;;;;;6.97;1.52;;;9.50;99.90;;;;;;5077940;28;20086;-66
2022/04/07 06:17:52;;;;;;;5.35;1.70;;;9.50;99.90;;;;;;5078617;28;20036;-66
2022/04/07 06:20:21;;;;;;;2.90;1.33;;;9.50;99.90;;;;;;5061598;28;20109;-62
2022/04/07 06:22:47;;;;;;;4.90;1.60;;;9.50;99.90;;;;;;5078025;28;20055;-62
2022/04/07 06:25:13;;;;;;;5.55;1.60;;;9.50;99.90;;;;;;5078726;28;20064;-63
2022/04/07 06:27:44;;;;;;;5.20;1.70;;;9.50;99.90;;;;;;5078098;28;20032;-61
2022/04/07 06:30:12;;;;;;;5.57;1.55;;;9.50;99.90;;;;;;5077906;28;20029;-64
2022/04/07 06:32:39;;;;;;;7.55;1.42;;;9.70;99.90;;;;;;5077882;28;20085;-66
2022/04/07 06:35:07;;;;;;;4.97;1.83;;;9.60;99.90;;;;;;5078494;28;20033;-64
2022/04/07 06:37:51;;;;;;;5.03;1.70;;;9.70;99.90;;;;;;5077821;28;20016;-68
2022/04/07 06:40:20;;;;;;;8.10;1.65;;;9.70;99.90;;;;;;5077582;28;20044;-65
2022/04/07 06:42:50;;;;;;;3.88;1.70;;;9.70;99.90;;;;;;5077840;28;20308;-63
2022/04/07 06:45:16;;;;;;;4.72;1.30;;;9.70;99.90;;;;;;5077704;28;20066;-63
2022/04/07 06:47:42;;;;;;;2.40;1.20;;;9.80;99.90;;;;;;5078405;28;20032;-62
2022/04/07 06:50:13;;;;;;;3.20;1.35;;;9.90;99.90;;;;;;5061063;28;20041;-64
2022/04/07 06:52:40;;;;;;;2.50;1.17;;;9.90;99.90;;;;;;5078188;28;20035;-68
2022/04/07 06:55:07;;;;;;;3.75;1.40;;;9.90;99.90;;;;;;5078157;28;20051;-71
2022/04/07 06:57:53;;;;;;;3.85;1.35;;;9.90;99.90;;;;;;5077441;28;20082;-65
2022/04/07 07:00:20;;;;;;;3.03;1.30;;;10.00;99.90;;;;;;5077355;28;20059;-71
2022/04/07 07:02:52;;;;;;;2.92;1.35;;;10.00;99.90;;;;;;5078163;28;20028;-60
2022/04/07 07:05:19;;;;;;;5.53;1.50;;;10.10;99.90;;;;;;5077350;28;20051;-69
2022/04/07 07:07:44;;;;;;;2.35;1.45;;;10.20;99.90;;;;;;5078043;28;20035;-73
2022/04/07 07:10:11;;;;;;;4.88;1.33;;;10.10;99.90;;;;;;5060715;28;20388;-68
2022/04/07 07:12:37;;;;;;;3.55;1.23;;;10.20;99.90;;;;;;5077249;28;20040;-69
2022/04/07 07:15:03;;;;;;;3.40;1.45;;;10.20;99.90;;;;;;5043906;28;20082;-64
2022/04/07 07:17:33;;;;;;;2.78;1.40;;;10.20;99.90;;;;;;5060440;28;20044;-62
2022/04/07 07:20:13;;;;;;;3.10;1.50;;;10.20;99.90;;;;;;5060908;28;20354;-64
2022/04/07 07:22:40;;;;;;;3.08;1.25;;;10.20;99.90;;;;;;5077748;28;20173;-61
2022/04/07 07:25:07;;;;;;;7.72;2.10;;;10.20;99.90;;;;;;5077587;28;20099;-58
2022/04/07 07:27:44;;;;;;;6.78;1.00;;;10.30;99.90;;;;;;5076711;28;20025;-59
2022/04/07 07:30:12;;;;;;;20.48;1.05;;;10.10;99.90;;;;;;5076637;28;20268;-59
2022/04/07 07:32:39;;;;;;;13.10;0.65;;;9.50;99.90;;;;;;5060339;28;20041;-61
2022/04/07 07:35:06;;;;;;;1.73;0.32;;;8.90;99.90;;;;;;5076702;28;20036;-59
2022/04/07 07:37:32;;;;;;;9.55;0.50;;;8.70;99.90;;;;;;5077752;28;20403;-58
2022/04/07 07:40:06;;;;;;;11.38;0.65;;;8.60;99.90;;;;;;5077249;28;20056;-57
2022/04/07 07:42:32;;;;;;;3.65;0.57;;;8.60;99.90;;;;;;5076652;28;20024;-59
2022/04/07 07:44:57;;;;;;;16.05;0.93;;;8.60;99.90;;;;;;5077365;28;20093;-57
2022/04/07 07:47:23;;;;;;;1.17;0.50;;;8.60;99.90;;;;;;5077407;28;20383;-58
2022/04/07 07:49:49;;;;;;;3.70;0.73;;;8.70;99.90;;;;;;5077268;28;20104;-58
2022/04/07 07:52:18;;;;;;;2.25;0.75;;;8.90;99.90;;;;;;5076746;28;20028;-58
2022/04/07 07:54:44;;;;;;;1.95;1.00;;;9.00;99.90;;;;;;5076787;28;20067;-59
2022/04/07 07:57:10;;;;;;;3.22;1.00;;;9.00;99.90;;;;;;5076534;28;20036;-58
2022/04/07 07:59:36;;;;;;;2.78;1.20;;;9.00;99.90;;;;;;5077103;28;20024;-59
2022/04/07 08:02:02;;;;;;;2.88;0.95;;;9.10;99.90;;;;;;5077339;28;20277;-57
2022/04/07 08:04:28;;;;;;;3.47;1.00;;;9.30;99.90;;;;;;5076366;28;20040;-59
2022/04/07 08:06:54;;;;;;;2.22;1.05;;;9.40;99.90;;;;;;5076366;28;20040;-60
2022/04/07 08:09:20;;;;;;;4.82;1.20;;;9.60;99.90;;;;;;5059707;28;20136;-58
2022/04/07 08:11:46;;;;;;;2.75;1.08;;;9.70;99.90;;;;;;5077198;28;20087;-59
2022/04/07 08:14:12;;;;;;;1.45;1.10;;;9.80;99.90;;;;;;5076331;28;20037;-59
2022/04/07 08:16:38;;;;;;;1.85;1.10;;;10.00;99.90;;;;;;5059598;28;20110;-57
2022/04/07 08:19:09;;;;;;;3.97;1.00;;;10.10;99.90;;;;;;5076962;28;20052;-60
2022/04/07 08:21:36;;;;;;;4.25;1.38;;;10.00;99.90;;;;;;5076230;28;20093;-60
2022/04/07 08:24:01;;;;;;;3.17;1.10;;;10.10;99.90;;;;;;5076242;28;20376;-58
2022/04/07 08:26:27;;;;;;;2.65;1.10;;;10.00;99.90;;;;;;5076814;28;20177;-59
2022/04/07 08:28:53;;;;;;;3.47;1.00;;;10.00;99.90;;;;;;5076138;28;20037;-59
2022/04/07 08:31:19;;;;;;;4.30;1.02;;;10.10;99.90;;;;;;5076130;28;20032;-59
2022/04/07 08:33:45;;;;;;;3.25;1.00;;;10.10;99.90;;;;;;5060009;28;20025;-60
2022/04/07 08:36:11;;;;;;;2.22;1.10;;;10.20;99.90;;;;;;5076810;28;20116;-58
2022/04/07 08:38:36;;;;;;;2.47;0.90;;;10.10;99.90;;;;;;5076826;28;20056;-58
2022/04/07 08:41:08;;;;;;;4.35;1.10;;;10.10;99.90;;;;;;5078534;28;20048;-58
2022/04/07 08:43:38;;;;;;;4.40;0.98;;;10.20;99.90;;;;;;5080221;28;20063;-58
2022/04/07 08:46:08;;;;;;;1.20;0.60;;;10.20;99.90;;;;;;5080130;28;20060;-59
2022/04/07 08:48:42;;;;;;;2.03;0.70;;;10.20;99.90;;;;;;5081176;28;20025;-59
2022/04/07 08:51:09;;;;;;;2.17;0.70;;;10.20;99.90;;;;;;5080105;28;20406;-60
2022/04/07 08:53:37;;;;;;;2.92;0.60;;;10.20;99.90;;;;;;5080671;28;20104;-58
2022/04/07 08:56:04;;;;;;;2.42;0.50;;;10.20;99.90;;;;;;5080531;28;20081;-59
2022/04/07 08:58:31;;;;;;;5.40;0.63;;;10.10;99.90;;;;;;5080561;28;20028;-60
2022/04/07 09:00:57;;;;;;;1.88;0.50;;;10.10;99.90;;;;;;5080453;28;20304;-59
2022/04/07 09:03:23;;;;;;;3.28;0.65;;;10.00;99.90;;;;;;5063113;28;20047;-59
2022/04/07 09:06:00;;;;;;;0.90;0.50;;;10.10;99.90;;;;;;5080496;28;20029;-59
2022/04/07 09:08:39;;;;;;;1.75;0.47;;;10.30;99.90;;;;;;5081021;28;20051;-62
2022/04/07 09:11:08;;;;;;;2.83;0.47;;;10.40;99.90;;;;;;5079722;28;20039;-58
2022/04/07 09:13:36;;;;;;;4.30;0.70;;;10.40;99.90;;;;;;5080228;28;20064;-58
2022/04/07 09:16:20;;;;;;;4.07;0.82;;;10.40;99.90;;;;;;5080514;28;20395;-58
2022/04/07 09:18:49;;;;;;;4.55;0.77;;;10.50;99.90;;;;;;5080969;28;20292;-57
2022/04/07 09:21:27;;;;;;;1.85;0.50;;;10.60;99.90;;;;;;5079425;28;20107;-57
2022/04/07 09:23:54;;;;;;;4.53;0.70;;;10.50;99.90;;;;;;5079405;28;20030;-58
2022/04/07 09:26:20;;;;;;;4.82;0.77;;;10.60;99.90;;;;;;5080036;28;20093;-58
2022/04/07 09:28:46;;;;;;;6.95;0.90;;;10.70;99.90;;;;;;5079962;28;20090;-58
2022/04/07 09:31:17;;;;;;;4.65;0.60;;;10.80;99.90;;;;;;5079987;28;20037;-57
2022/04/07 09:33:52;;;;;;;3.58;0.65;;;11.10;99.90;;;;;;5079804;28;20035;-59
2022/04/07 09:36:21;;;;;;;4.05;1.00;;;11.20;99.90;;;;;;5079040;28;20094;-57
2022/04/07 09:38:55;;;;;;;3.95;0.75;;;11.20;99.90;;;;;;5079029;28;20021;-58
2022/04/07 09:41:23;;;;;;;4.18;0.88;;;11.40;99.90;;;;;;5078876;28;20033;-58
2022/04/07 09:43:50;;;;;;;5.57;0.85;;;11.30;99.90;;;;;;5079745;28;20346;-56
2022/04/07 09:46:18;;;;;;;3.15;0.57;;;11.30;99.90;;;;;;5079837;28;20083;-58
2022/04/07 09:49:10;;;;;;;3.55;0.70;;;11.30;99.90;;;;;;5079618;28;20054;-58
2022/04/07 09:51:58;;;;;;;5.18;0.80;;;11.30;99.90;;;;;;5079128;28;20036;-57
2022/04/07 09:54:25;;;;;;;5.25;0.90;;;11.30;99.90;;;;;;5080116;28;20301;-59
2022/04/07 09:56:53;;;;;;;4.20;0.65;;;11.50;99.90;;;;;;5079503;28;20028;-59
2022/04/07 09:59:20;;;;;;;3.08;0.80;;;11.70;99.90;;;;;;5079513;28;20055;-58
2022/04/07 10:01:50;;;;;;;6.32;1.05;;;11.90;99.90;;;;;;5079425;28;20343;-58
2022/04/07 10:04:16;;;;;;;5.78;1.15;;;11.90;99.90;;;;;;5079647;28;20024;-56
2022/04/07 10:06:43;;;;;;;2.42;0.75;;;12.00;99.90;;;;;;5079271;28;20033;-57
2022/04/07 10:09:09;;;;;;;4.95;0.93;;;12.10;99.90;;;;;;5079292;28;20067;-58
2022/04/07 10:11:36;;;;;;;7.07;1.00;;;12.30;99.90;;;;;;5078455;28;20037;-57
2022/04/07 10:14:03;;;;;;;4.75;0.50;;;12.30;99.90;;;;;;5079100;28;20024;-61
2022/04/07 10:16:29;;;;;;;6.88;0.70;;;12.20;99.90;;;;;;5079076;28;20040;-60
2022/04/07 10:19:11;;;;;;;6.25;1.58;;;12.10;99.90;;;;;;5079084;28;20296;-58
2022/04/07 10:21:39;;;;;;;3.47;0.70;;;12.30;99.90;;;;;;5078552;28;20071;-59
2022/04/07 10:24:35;;;;;;;3.95;0.82;;;12.40;99.90;;;;;;5079036;28;20074;-59
2022/04/07 10:27:05;;;;;;;5.32;0.90;;;12.50;99.90;;;;;;5079042;28;20036;-58
2022/04/07 10:29:31;;;;;;;4.40;0.88;;;12.60;99.90;;;;;;5078061;28;20032;-59
2022/04/07 10:32:11;;;;;;;4.57;0.90;;;12.70;99.90;;;;;;5078759;28;20273;-58
2022/04/07 10:34:42;;;;;;;6.00;1.35;;;12.70;99.90;;;;;;5077901;28;20116;-59
2022/04/07 10:37:11;;;;;;;5.68;0.80;;;12.80;99.90;;;;;;5078237;28;20041;-58
2022/04/07 10:39:41;;;;;;;5.85;0.90;;;12.70;99.90;;;;;;5077809;28;20079;-59
2022/04/07 10:42:09;;;;;;;3.08;0.77;;;13.10;99.90;;;;;;5078569;28;20055;-57
2022/04/07 10:44:36;;;;;;;2.60;0.75;;;13.80;99.90;;;;;;5078551;28;20057;-58
2022/04/07 10:47:05;;;;;;;3.70;0.85;;;14.40;99.90;;;;;;5078396;28;20028;-57
2022/04/07 10:49:32;;;;;;;5.80;0.95;;;14.10;99.90;;;;;;5078504;28;20036;-58
2022/04/07 10:51:59;;;;;;;8.40;1.00;;;13.70;99.90;;;;;;5078376;28;20052;-58
2022/04/07 10:54:30;;;;;;;5.70;1.13;;;13.70;99.90;;;;;;5078305;28;20024;-59
2022/04/07 10:56:59;;;;;;;6.72;1.08;;;14.00;99.90;;;;;;5077548;28;20079;-58
2022/04/07 10:59:29;;;;;;;4.65;1.20;;;14.40;99.90;;;;;;5077676;28;20064;-57
2022/04/07 11:01:59;;;;;;;6.45;1.15;;;14.40;99.90;;;;;;5078262;28;20108;-57
2022/04/07 11:04:25;;;;;;;5.75;0.90;;;14.40;99.90;;;;;;5077157;28;20040;-57
2022/04/07 11:07:13;;;;;;;7.57;1.65;;;14.60;99.90;;;;;;5078035;28;20434;-59
2022/04/07 11:09:58;;;;;;;3.70;0.90;;;14.60;99.90;;;;;;5077174;28;20397;-59
2022/04/07 11:12:37;;;;;;;5.60;1.00;;;14.50;99.90;;;;;;5078125;28;20038;-59
2022/04/07 11:15:06;;;;;;;5.30;1.10;;;14.60;99.90;;;;;;5078396;28;20043;-56
2022/04/07 11:17:44;;;;;;;3.90;1.17;;;14.80;99.90;;;;;;5077858;28;20039;-58
2022/04/07 11:20:13;;;;;;;7.80;1.63;;;15.00;99.90;;;;;;5077098;28;20021;-57
2022/04/07 11:23:09;;;;;;;6.03;1.20;;;14.70;99.90;;;;;;5076998;28;20036;-58
2022/04/07 11:25:47;;;;;;;6.72;1.40;;;14.10;99.90;;;;;;5077429;28;20043;-59
2022/04/07 11:28:17;;;;;;;7.70;1.27;;;13.80;99.90;;;;;;5077502;28;20037;-58
2022/04/07 11:30:46;;;;;;;7.57;1.30;;;13.90;99.90;;;;;;5077359;28;20028;-58
2022/04/07 11:33:18;;;;;;;7.60;1.80;;;14.00;99.90;;;;;;5077602;28;20392;-58
2022/04/07 11:36:05;;;;;;;7.47;1.65;;;13.80;99.90;;;;;;5076757;28;20444;-60
2022/04/07 11:38:35;;;;;;;9.02;1.85;;;13.60;99.90;;;;;;5076788;28;20146;-58
2022/04/07 11:41:05;;;;;;;7.35;1.48;;;13.60;99.90;;;;;;5077341;28;20036;-57
2022/04/07 11:43:32;;;;;;;6.47;1.65;;;13.90;99.90;;;;;;5077704;28;20111;-57
2022/04/07 11:46:07;;;;;;;6.28;1.25;;;13.90;99.90;;;;;;5077274;28;20300;-59
2022/04/07 11:48:35;;;;;;;5.03;1.50;;;14.00;99.90;;;;;;5060864;28;20028;-59
2022/04/07 11:51:09;;;;;;;8.23;1.58;;;13.90;99.90;;;;;;5076372;28;20105;-58
2022/04/07 11:53:37;;;;;;;6.72;1.42;;;13.90;99.90;;;;;;5077231;28;20059;-58
2022/04/07 11:56:17;;;;;;;13.45;2.00;;;13.70;99.90;;;;;;5060221;28;20036;-58
2022/04/07 11:58:46;;;;;;;10.43;1.70;;;13.90;99.90;;;;;;5076390;28;20025;-58
2022/04/07 12:01:13;;;;;;;8.55;1.30;;;14.00;99.90;;;;;;5060051;28;20025;-60
2022/04/07 12:03:39;;;;;;;6.38;1.40;;;13.60;99.90;;;;;;5076378;28;20047;-59
2022/04/07 12:06:05;;;;;;;7.57;1.90;;;13.70;99.90;;;;;;5077410;28;20295;-57
2022/04/07 12:08:31;;;;;;;7.20;1.52;;;14.00;99.90;;;;;;5076994;28;20178;-58
2022/04/07 12:10:58;;;;;;;10.88;2.08;;;14.30;99.90;;;;;;5076247;28;20028;-60
2022/04/07 12:13:24;;;;;;;4.82;1.50;;;14.40;99.90;;;;;;5076993;28;20031;-58
2022/04/07 12:15:50;;;;;;;5.43;1.70;;;14.60;99.90;;;;;;5075991;28;20033;-58
2022/04/07 12:18:25;;;;;;;9.73;1.80;;;14.90;99.90;;;;;;5059556;28;20277;-60
2022/04/07 12:21:05;;;;;;;5.43;1.48;;;14.30;99.90;;;;;;5076906;28;20020;-57
2022/04/07 12:23:31;;;;;;;10.25;1.70;;;13.70;99.90;;;;;;5076930;28;20373;-59
2022/04/07 12:26:02;;;;;;;8.30;1.60;;;13.40;99.90;;;;;;5076813;28;20063;-58
2022/04/07 12:28:38;;;;;;;10.13;1.60;;;13.30;99.90;;;;;;5077255;28;20058;-58
2022/04/07 12:31:21;;;;;;;7.15;1.27;;;13.30;99.90;;;;;;5077070;28;20048;-58
2022/04/07 12:33:47;;;;;;;;;;;13.30;99.90;;;;;;5076805;28;20427;-57
2022/04/07 12:36:14;;;;;;;11.35;1.60;;;13.30;99.90;;;;;;5076686;28;19928;-58
2022/04/07 12:38:40;;;;;;;8.35;1.60;;;13.50;99.90;;;;;;5076653;28;20094;-58
2022/04/07 12:41:15;;;;;;;7.90;1.48;;;13.80;99.90;;;;;;5075707;28;20049;-57
2022/04/07 12:43:52;;;;;;;6.03;1.38;;;13.50;99.90;;;;;;5076926;28;20371;-58
2022/04/07 12:46:20;;;;;;;8.77;1.85;;;13.30;99.90;;;;;;5076924;28;20045;-57
2022/04/07 12:49:01;;;;;;;13.35;2.10;;;13.50;99.90;;;;;;5059173;28;20384;-57
2022/04/07 12:51:27;;;;;;;8.63;1.95;;;13.50;99.90;;;;;;5076709;28;20043;-58
2022/04/07 12:54:08;;;;;;;8.48;2.22;;;13.50;99.90;;;;;;5075640;28;20037;-58